createdAt,value
2022-10-23T00:00:47.249Z,99.68
2022-10-23T00:01:47.136Z,99.79
2022-10-23T00:02:47.225Z,99.68
2022-10-23T00:03:47.099Z,99.68
2022-10-23T00:04:47.112Z,99.48
2022-10-23T00:05:47.073Z,99.68
2022-10-23T00:06:47.084Z,99.79
2022-10-23T00:07:47.074Z,99.58
2022-10-23T00:08:47.044Z,99.27
2022-10-23T00:09:47.032Z,99.27
2022-10-23T00:10:47.060Z,99.58
2022-10-23T00:11:47.021Z,99.68
2022-10-23T00:12:47.008Z,99.79
2022-10-23T00:13:47.016Z,99.74
2022-10-23T00:14:47.060Z,99.58
2022-10-23T00:15:47.031Z,99.68
2022-10-23T00:16:46.998Z,99.79
2022-10-23T00:17:46.959Z,99.54
2022-10-23T00:18:46.949Z,99.64
2022-10-23T00:19:46.954Z,99.54
2022-10-23T00:20:46.962Z,99.64
2022-10-23T00:21:46.929Z,99.54
2022-10-23T00:22:46.932Z,99.74
2022-10-23T00:23:46.898Z,99.64
2022-10-23T00:24:46.888Z,99.54
2022-10-23T00:25:46.899Z,99.64
2022-10-23T00:26:46.907Z,99.33
2022-10-23T00:27:46.874Z,99.64
2022-10-23T00:28:46.881Z,99.39
2022-10-23T00:29:46.832Z,99.43
2022-10-23T00:30:46.897Z,99.23
2022-10-23T00:31:46.834Z,99.54
2022-10-23T00:32:46.803Z,99.43
2022-10-23T00:33:46.799Z,99.54
2022-10-23T00:34:46.819Z,99.54
2022-10-23T00:35:46.831Z,99.13
2022-10-23T00:36:46.775Z,99.64
2022-10-23T00:37:46.785Z,99.23
2022-10-23T00:38:46.749Z,99.43
2022-10-23T00:39:46.755Z,99.64
2022-10-23T00:40:46.799Z,99.33
2022-10-23T00:41:46.714Z,99.64
2022-10-23T00:42:46.722Z,99.64
2022-10-23T00:43:46.730Z,99.33
2022-10-23T00:44:46.667Z,99.64
2022-10-23T00:45:46.699Z,99.54
2022-10-23T00:46:46.706Z,99.54
2022-10-23T00:47:46.648Z,99.64
2022-10-23T00:48:46.662Z,99.89
2022-10-23T00:49:46.620Z,99.64
2022-10-23T00:50:46.676Z,99.79
2022-10-23T00:51:46.648Z,99.64
2022-10-23T00:52:46.640Z,99.68
2022-10-23T00:53:52.849Z,99.48
2022-10-23T00:54:47.586Z,99.38
2022-10-23T00:55:46.613Z,99.58
2022-10-23T00:56:46.576Z,99.58
2022-10-23T00:57:46.583Z,99.58
2022-10-23T00:58:46.592Z,99.48
2022-10-23T00:59:46.542Z,99.68
2022-10-23T01:00:46.550Z,99.48
2022-10-23T01:01:46.680Z,98.77
2022-10-23T01:02:46.856Z,98.36
2022-10-23T01:03:46.510Z,99.07
2022-10-23T01:04:46.530Z,99.18
2022-10-23T01:06:46.490Z,99.63
2022-10-23T01:07:46.499Z,98.81
2022-10-23T01:08:46.455Z,99.52
2022-10-23T01:09:46.461Z,99.57
2022-10-23T01:10:46.469Z,99.57
2022-10-23T01:11:46.421Z,99.02
2022-10-23T01:12:46.408Z,99.37
2022-10-23T01:13:46.440Z,99.52
2022-10-23T01:14:46.399Z,99.68
2022-10-23T01:15:46.403Z,99.16
2022-10-23T01:16:46.359Z,99.47
2022-10-23T01:17:46.722Z,99.11
2022-10-23T01:18:46.370Z,99.27
2022-10-23T01:19:46.333Z,99.27
2022-10-23T01:20:46.343Z,99.02
2022-10-23T01:21:46.293Z,99.27
2022-10-23T01:22:46.293Z,98.75
2022-10-23T01:23:46.299Z,99.37
2022-10-23T01:24:46.307Z,99.37
2022-10-23T01:25:46.272Z,99.37
2022-10-23T01:26:46.274Z,99.47
2022-10-23T01:27:46.286Z,98.75
2022-10-23T01:28:46.237Z,98.86
2022-10-23T01:29:46.240Z,99.27
2022-10-23T01:30:46.248Z,99.37
2022-10-23T01:31:46.219Z,99.52
2022-10-23T01:32:46.223Z,98.55
2022-10-23T01:33:46.207Z,98.86
2022-10-23T01:34:46.172Z,99.21
2022-10-23T01:35:46.194Z,99.11
2022-10-23T01:36:46.183Z,99.06
2022-10-23T01:37:46.142Z,99.16
2022-10-23T01:38:46.161Z,99.62
2022-10-23T01:39:46.169Z,99.37
2022-10-23T01:40:46.128Z,99.31
2022-10-23T01:41:46.116Z,99.11
2022-10-23T01:42:46.109Z,99.21
2022-10-23T01:43:46.115Z,99.11
2022-10-23T01:44:46.105Z,99.06
2022-10-23T01:45:46.108Z,99.31
2022-10-23T01:46:46.069Z,99.41
2022-10-23T01:47:46.057Z,98.90
2022-10-23T01:48:46.048Z,99.31
2022-10-23T01:49:46.042Z,99.52
2022-10-23T01:50:46.046Z,99.31
2022-10-23T01:51:46.004Z,98.80
2022-10-23T01:52:46.055Z,99.31
2022-10-23T01:53:45.995Z,99.41
2022-10-23T01:54:46.017Z,99.56
2022-10-23T01:55:46.018Z,99.31
2022-10-23T01:56:45.980Z,99.62
2022-10-23T01:57:46.113Z,99.46
2022-10-23T01:58:45.945Z,99.66
2022-10-23T01:59:45.950Z,99.77
2022-10-23T02:00:45.966Z,99.77
2022-10-23T02:01:46.039Z,98.85
2022-10-23T02:02:45.926Z,98.85
2022-10-23T02:03:46.008Z,99.26
2022-10-23T02:04:45.890Z,98.90
2022-10-23T02:05:45.899Z,99.15
2022-10-23T02:06:45.882Z,98.95
2022-10-23T02:07:45.846Z,98.95
2022-10-23T02:08:45.870Z,98.95
2022-10-23T02:09:45.877Z,98.99
2022-10-23T02:10:45.834Z,99.10
2022-10-23T02:11:45.840Z,99.30
2022-10-23T02:12:45.799Z,99.20
2022-10-23T02:13:45.802Z,99.20
2022-10-23T02:14:45.809Z,99.30
2022-10-23T02:15:45.817Z,99.10
2022-10-23T02:16:45.772Z,99.30
2022-10-23T02:17:45.787Z,99.41
2022-10-23T02:18:45.762Z,99.41
2022-10-23T02:19:45.751Z,99.20
2022-10-23T02:20:45.760Z,99.30
2022-10-23T02:21:45.759Z,99.41
2022-10-23T02:22:45.715Z,99.41
2022-10-23T02:23:45.716Z,99.35
2022-10-23T02:24:45.695Z,99.35
2022-10-23T02:25:45.704Z,99.41
2022-10-23T02:26:45.682Z,99.30
2022-10-23T02:27:45.700Z,99.25
2022-10-23T02:28:45.648Z,98.38
2022-10-23T02:29:45.662Z,98.12
2022-10-23T02:30:45.673Z,98.74
2022-10-23T02:31:45.625Z,98.02
2022-10-23T02:32:45.773Z,97.91
2022-10-23T02:33:45.590Z,98.22
2022-10-23T02:34:45.649Z,98.22
2022-10-23T02:35:45.579Z,98.43
2022-10-23T02:36:45.560Z,98.22
2022-10-23T02:37:45.821Z,98.12
2022-10-23T02:38:45.577Z,98.33
2022-10-23T02:39:45.531Z,98.22
2022-10-23T02:40:45.591Z,98.37
2022-10-23T02:41:45.548Z,98.22
2022-10-23T02:42:45.499Z,98.02
2022-10-23T02:43:45.506Z,98.22
2022-10-23T02:44:45.517Z,98.33
2022-10-23T02:45:45.486Z,98.33
2022-10-23T02:46:45.482Z,97.75
2022-10-23T02:47:46.460Z,98.27
2022-10-23T02:48:45.441Z,98.37
2022-10-23T02:49:45.450Z,98.16
2022-10-23T02:50:45.456Z,98.12
2022-10-23T02:51:45.411Z,98.16
2022-10-23T02:52:45.420Z,98.16
2022-10-23T02:53:45.487Z,98.37
2022-10-23T02:54:45.425Z,98.47
2022-10-23T02:55:45.441Z,98.47
2022-10-23T02:56:45.373Z,98.37
2022-10-23T02:57:45.588Z,98.58
2022-10-23T02:58:45.352Z,98.52
2022-10-23T02:59:45.373Z,98.32
2022-10-23T03:00:45.388Z,98.72
2022-10-23T03:01:45.424Z,98.52
2022-10-23T03:02:45.347Z,98.42
2022-10-23T03:03:45.308Z,98.93
2022-10-23T03:04:45.309Z,98.72
2022-10-23T03:05:45.311Z,98.52
2022-10-23T03:06:45.319Z,98.72
2022-10-23T03:07:45.504Z,99.44
2022-10-23T03:08:45.281Z,98.83
2022-10-23T03:09:45.236Z,98.77
2022-10-23T03:10:45.308Z,99.59
2022-10-23T03:11:45.251Z,99.38
2022-10-23T03:12:45.455Z,99.44
2022-10-23T03:13:45.214Z,99.38
2022-10-23T03:14:45.221Z,99.28
2022-10-23T03:15:45.218Z,99.49
2022-10-23T03:16:45.185Z,99.49
2022-10-23T03:17:45.187Z,99.49
2022-10-23T03:18:45.193Z,99.28
2022-10-23T03:19:45.217Z,99.28
2022-10-23T03:20:45.189Z,99.08
2022-10-23T03:21:45.135Z,99.28
2022-10-23T03:22:45.465Z,99.18
2022-10-23T03:23:45.135Z,99.38
2022-10-23T03:24:45.127Z,99.49
2022-10-23T03:25:46.120Z,98.97
2022-10-23T03:26:45.086Z,99.28
2022-10-23T03:27:45.113Z,99.38
2022-10-23T03:28:45.070Z,99.18
2022-10-23T03:29:45.074Z,99.28
2022-10-23T03:30:45.080Z,99.08
2022-10-23T03:31:45.034Z,99.18
2022-10-23T03:32:45.392Z,99.28
2022-10-23T03:33:45.053Z,99.28
2022-10-23T03:34:45.010Z,99.49
2022-10-23T03:35:45.069Z,99.08
2022-10-23T03:36:45.023Z,98.97
2022-10-23T03:37:45.267Z,98.83
2022-10-23T03:38:44.981Z,99.38
2022-10-23T03:39:44.984Z,99.08
2022-10-23T03:40:44.957Z,99.99
2022-10-23T03:41:44.952Z,99.99
2022-10-23T03:42:44.964Z,99.65
2022-10-23T03:43:44.957Z,98.83
2022-10-23T03:44:44.922Z,99.54
2022-10-23T03:45:44.925Z,99.99
2022-10-23T03:46:44.891Z,99.79
2022-10-23T03:47:45.107Z,99.65
2022-10-23T03:48:44.906Z,99.44
2022-10-23T03:49:44.913Z,99.44
2022-10-23T03:50:44.870Z,99.24
2022-10-23T03:51:44.852Z,99.70
2022-10-23T03:52:45.105Z,99.54
2022-10-23T03:53:44.837Z,99.13
2022-10-23T03:54:44.845Z,99.65
2022-10-23T03:55:44.862Z,99.65
2022-10-23T03:56:44.800Z,99.65
2022-10-23T03:57:44.790Z,99.65
2022-10-23T03:58:44.779Z,99.44
2022-10-23T03:59:44.781Z,99.59
2022-10-23T04:00:44.830Z,99.85
2022-10-23T04:01:44.905Z,99.59
2022-10-23T04:02:45.112Z,99.38
2022-10-23T04:03:44.730Z,99.49
2022-10-23T04:04:44.719Z,99.34
2022-10-23T04:05:44.747Z,99.59
2022-10-23T04:06:44.723Z,99.38
2022-10-23T04:07:44.834Z,99.49
2022-10-23T04:08:44.677Z,99.59
2022-10-23T04:09:44.679Z,99.85
2022-10-23T04:10:44.680Z,99.28
2022-10-23T04:11:44.670Z,99.79
2022-10-23T04:12:45.072Z,99.69
2022-10-23T04:13:44.662Z,99.79
2022-10-23T04:14:44.687Z,99.59
2022-10-23T04:15:44.629Z,99.59
2022-10-23T04:16:44.625Z,99.69
2022-10-23T04:17:44.594Z,99.49
2022-10-23T04:18:44.615Z,99.79
2022-10-23T04:19:44.618Z,99.38
2022-10-23T04:20:44.588Z,99.99
2022-10-23T04:21:44.560Z,99.79
2022-10-23T04:22:45.020Z,99.59
2022-10-23T04:23:44.547Z,99.90
2022-10-23T04:24:44.554Z,99.79
2022-10-23T04:25:44.611Z,99.28
2022-10-23T04:26:44.524Z,99.79
2022-10-23T04:27:44.869Z,99.69
2022-10-23T04:28:44.504Z,99.59
2022-10-23T04:29:44.488Z,99.84
2022-10-23T04:30:44.496Z,99.59
2022-10-23T04:31:44.504Z,99.59
2022-10-23T04:32:44.436Z,99.33
2022-10-23T04:33:45.442Z,99.84
2022-10-23T04:34:44.453Z,99.74
2022-10-23T04:35:45.145Z,99.74
2022-10-23T04:36:44.432Z,99.74
2022-10-23T04:37:44.688Z,99.12
2022-10-23T04:38:44.378Z,99.95
2022-10-23T04:39:44.384Z,99.79
2022-10-23T04:40:44.392Z,99.74
2022-10-23T04:41:44.371Z,99.79
2022-10-23T04:42:44.659Z,99.79
2022-10-23T04:43:44.363Z,99.74
2022-10-23T04:44:44.352Z,99.89
2022-10-23T04:45:44.320Z,99.84
2022-10-23T04:46:44.330Z,99.84
2022-10-23T04:47:44.296Z,99.89
2022-10-23T04:48:44.325Z,99.99
2022-10-23T04:49:44.329Z,99.89
2022-10-23T04:50:47.303Z,99.12
2022-10-23T04:51:44.262Z,99.12
2022-10-23T04:52:44.696Z,99.74
2022-10-23T04:53:44.253Z,99.89
2022-10-23T04:54:44.263Z,99.68
2022-10-23T04:55:44.263Z,99.58
2022-10-23T04:56:44.201Z,99.58
2022-10-23T04:58:03.771Z,99.79
2022-10-23T04:58:44.169Z,99.83
2022-10-23T04:59:44.161Z,99.63
2022-10-23T05:00:44.185Z,99.93
2022-10-23T05:01:44.190Z,99.83
2022-10-23T05:02:44.360Z,99.79
2022-10-23T05:03:44.119Z,99.83
2022-10-23T05:04:44.115Z,99.99
2022-10-23T05:05:44.123Z,99.99
2022-10-23T05:06:44.097Z,99.99
2022-10-23T05:07:44.353Z,99.99
2022-10-23T05:08:44.082Z,99.32
2022-10-23T05:09:44.066Z,99.21
2022-10-23T05:10:44.064Z,99.32
2022-10-23T05:11:44.050Z,99.48
2022-10-23T05:12:44.036Z,99.58
2022-10-23T05:13:44.041Z,99.17
2022-10-23T05:14:44.013Z,99.48
2022-10-23T05:16:43.990Z,99.27
2022-10-23T05:17:44.264Z,99.32
2022-10-23T05:18:43.980Z,99.99
2022-10-23T05:19:43.969Z,99.99
2022-10-23T05:20:43.964Z,99.99
2022-10-23T05:21:43.947Z,99.99
2022-10-23T05:22:43.939Z,99.73
2022-10-23T05:23:43.931Z,99.99
2022-10-23T05:24:46.963Z,99.58
2022-10-23T05:25:45.926Z,99.38
2022-10-23T05:26:43.900Z,99.99
2022-10-23T05:27:44.191Z,99.27
2022-10-23T05:28:43.873Z,99.48
2022-10-23T05:29:43.873Z,99.38
2022-10-23T05:30:43.878Z,99.99
2022-10-23T05:31:43.859Z,99.07
2022-10-23T05:32:44.302Z,99.99
2022-10-23T05:33:44.186Z,99.79
2022-10-23T05:34:43.822Z,99.79
2022-10-23T05:35:43.841Z,99.17
2022-10-23T05:36:43.804Z,99.79
2022-10-23T05:37:43.797Z,99.68
2022-10-23T05:38:43.789Z,99.89
2022-10-23T05:39:43.772Z,99.89
2022-10-23T05:40:43.780Z,99.79
2022-10-23T05:41:43.762Z,99.27
2022-10-23T05:42:44.172Z,99.89
2022-10-23T05:43:43.737Z,99.84
2022-10-23T05:44:43.719Z,99.17
2022-10-23T05:45:43.738Z,99.58
2022-10-23T05:46:43.710Z,99.07
2022-10-23T05:47:43.697Z,99.79
2022-10-23T05:48:43.668Z,99.58
2022-10-23T05:49:43.669Z,99.68
2022-10-23T05:50:43.675Z,99.48
2022-10-23T05:51:43.652Z,99.63
2022-10-23T05:52:43.978Z,99.68
2022-10-23T05:53:43.640Z,99.95
2022-10-23T05:54:43.625Z,99.54
2022-10-23T05:55:43.640Z,99.63
2022-10-23T05:56:43.603Z,99.74
2022-10-23T05:57:43.841Z,99.54
2022-10-23T05:58:43.586Z,99.84
2022-10-23T05:59:43.581Z,99.54
2022-10-23T06:00:43.578Z,99.54
2022-10-23T06:01:43.746Z,99.74
2022-10-23T06:02:43.577Z,99.12
2022-10-23T06:03:43.535Z,99.54
2022-10-23T06:04:43.515Z,99.63
2022-10-23T06:05:43.537Z,99.99
2022-10-23T06:06:43.508Z,99.84
2022-10-23T06:07:44.053Z,99.74
2022-10-23T06:08:43.493Z,99.74
2022-10-23T06:09:43.480Z,99.74
2022-10-23T06:10:43.466Z,99.74
2022-10-23T06:11:43.476Z,99.54
2022-10-23T06:12:43.438Z,99.54
2022-10-23T06:13:43.472Z,99.99
2022-10-23T06:14:43.430Z,99.63
2022-10-23T06:15:43.428Z,99.54
2022-10-23T06:16:43.426Z,99.74
2022-10-23T06:17:43.717Z,99.63
2022-10-23T06:18:43.393Z,99.63
2022-10-23T06:19:43.389Z,99.54
2022-10-23T06:20:43.366Z,99.74
2022-10-23T06:21:43.381Z,99.84
2022-10-23T06:22:43.534Z,99.99
2022-10-23T06:23:43.347Z,99.49
2022-10-23T06:24:43.334Z,99.99
2022-10-23T06:25:43.324Z,99.69
2022-10-23T06:26:43.335Z,99.79
2022-10-23T06:27:43.305Z,99.59
2022-10-23T06:28:43.284Z,99.59
2022-10-23T06:29:43.280Z,99.99
2022-10-23T06:30:43.270Z,99.90
2022-10-23T06:31:43.277Z,99.08
2022-10-23T06:32:43.588Z,99.28
2022-10-23T06:33:43.240Z,98.77
2022-10-23T06:34:43.236Z,98.97
2022-10-23T06:35:43.226Z,99.99
2022-10-23T06:36:43.230Z,99.49
2022-10-23T06:37:43.201Z,99.99
2022-10-23T06:38:43.196Z,99.85
2022-10-23T06:39:43.182Z,99.95
2022-10-23T06:40:43.171Z,99.13
2022-10-23T06:41:43.179Z,99.75
2022-10-23T06:42:43.474Z,99.03
2022-10-23T06:43:43.144Z,99.85
2022-10-23T06:44:43.126Z,98.83
2022-10-23T06:45:43.129Z,99.85
2022-10-23T06:46:43.133Z,99.65
2022-10-23T06:47:43.459Z,99.54
2022-10-23T06:48:44.088Z,99.85
2022-10-23T06:49:43.092Z,99.85
2022-10-23T06:50:43.079Z,99.49
2022-10-23T06:51:43.086Z,99.69
2022-10-23T06:52:46.995Z,99.75
2022-10-23T06:53:43.053Z,99.54
2022-10-23T06:54:43.044Z,99.54
2022-10-23T06:55:43.036Z,99.34
2022-10-23T06:56:43.031Z,99.75
2022-10-23T06:57:43.329Z,99.44
2022-10-23T06:58:43.001Z,99.44
2022-10-23T06:59:42.986Z,99.85
2022-10-23T07:00:43.051Z,99.65
2022-10-23T07:01:43.121Z,99.75
2022-10-23T07:02:43.080Z,99.54
2022-10-23T07:03:42.939Z,99.91
2022-10-23T07:04:42.928Z,99.60
2022-10-23T07:05:42.918Z,99.40
2022-10-23T07:06:43.926Z,99.45
2022-10-23T07:07:42.897Z,99.45
2022-10-23T07:08:42.891Z,99.35
2022-10-23T07:09:42.877Z,99.10
2022-10-23T07:10:42.870Z,99.45
2022-10-23T07:11:42.888Z,99.30
2022-10-23T07:12:43.060Z,99.61
2022-10-23T07:13:42.843Z,99.66
2022-10-23T07:14:42.819Z,99.66
2022-10-23T07:15:42.823Z,99.87
2022-10-23T07:16:42.830Z,99.82
2022-10-23T07:17:42.801Z,99.37
2022-10-23T07:18:42.791Z,99.68
2022-10-23T07:19:42.780Z,99.68
2022-10-23T07:20:42.776Z,99.63
2022-10-23T07:21:42.778Z,99.73
2022-10-23T07:22:43.047Z,99.43
2022-10-23T07:23:42.737Z,99.63
2022-10-23T07:24:42.741Z,99.73
2022-10-23T07:25:42.724Z,99.38
2022-10-23T07:26:42.774Z,99.68
2022-10-23T07:27:42.926Z,99.79
2022-10-23T07:28:42.697Z,99.79
2022-10-23T07:29:42.684Z,99.43
2022-10-23T07:30:42.675Z,99.48
2022-10-23T07:31:42.674Z,99.43
2022-10-23T07:32:42.661Z,99.54
2022-10-23T07:33:42.643Z,99.64
2022-10-23T07:34:42.640Z,99.99
2022-10-23T07:35:42.628Z,99.69
2022-10-23T07:36:42.637Z,99.39
2022-10-23T07:37:42.818Z,99.39
2022-10-23T07:38:42.598Z,99.59
2022-10-23T07:39:42.579Z,98.88
2022-10-23T07:40:42.591Z,98.88
2022-10-23T07:41:42.622Z,98.98
2022-10-23T07:42:42.563Z,98.88
2022-10-23T07:43:42.549Z,98.98
2022-10-23T07:44:42.539Z,99.39
2022-10-23T07:45:42.523Z,98.88
2022-10-23T07:46:42.553Z,98.47
2022-10-23T07:47:42.758Z,98.83
2022-10-23T07:48:42.512Z,98.11
2022-10-23T07:49:42.486Z,97.71
2022-10-23T07:50:42.480Z,98.32
2022-10-23T07:51:42.500Z,97.91
2022-10-23T07:52:42.644Z,97.40
2022-10-23T07:53:42.441Z,97.50
2022-10-23T07:54:42.438Z,97.81
2022-10-23T07:55:42.421Z,97.50
2022-10-23T07:56:42.424Z,97.16
2022-10-23T07:57:42.405Z,97.20
2022-10-23T07:58:42.402Z,96.79
2022-10-23T07:59:42.389Z,96.84
2022-10-23T08:00:42.396Z,96.95
2022-10-23T08:01:42.650Z,96.54
2022-10-23T08:02:42.604Z,96.28
2022-10-23T08:03:42.351Z,95.97
2022-10-23T08:04:42.332Z,96.18
2022-10-23T08:05:42.329Z,96.48
2022-10-23T08:06:42.341Z,96.59
2022-10-23T08:07:42.308Z,96.54
2022-10-23T08:08:42.343Z,96.14
2022-10-23T08:09:42.277Z,96.14
2022-10-23T08:10:42.274Z,96.14
2022-10-23T08:11:42.280Z,95.48
2022-10-23T08:12:42.574Z,95.68
2022-10-23T08:13:43.243Z,95.78
2022-10-23T08:14:42.226Z,95.48
2022-10-23T08:15:42.222Z,95.68
2022-10-23T08:16:42.228Z,95.58
2022-10-23T08:17:42.529Z,94.72
2022-10-23T08:18:42.172Z,94.92
2022-10-23T08:19:42.189Z,94.52
2022-10-23T08:20:42.171Z,94.82
2022-10-23T08:21:42.186Z,94.11
2022-10-23T08:22:42.154Z,94.17
2022-10-23T08:23:42.148Z,94.21
2022-10-23T08:24:42.137Z,94.11
2022-10-23T08:25:42.124Z,94.07
2022-10-23T08:26:42.134Z,94.21
2022-10-23T08:27:42.571Z,94.17
2022-10-23T08:28:42.096Z,94.07
2022-10-23T08:29:42.088Z,94.17
2022-10-23T08:30:42.083Z,94.12
2022-10-23T08:31:42.091Z,93.82
2022-10-23T08:32:42.052Z,93.31
2022-10-23T08:33:42.068Z,93.37
2022-10-23T08:34:42.033Z,93.26
2022-10-23T08:35:42.030Z,93.37
2022-10-23T08:36:42.048Z,92.41
2022-10-23T08:37:42.268Z,92.41
2022-10-23T08:38:41.993Z,92.00
2022-10-23T08:39:41.989Z,91.49
2022-10-23T08:40:41.975Z,91.39
2022-10-23T08:41:41.979Z,91.05
2022-10-23T08:42:42.308Z,91.25
2022-10-23T08:43:41.952Z,90.23
2022-10-23T08:44:41.935Z,89.58
2022-10-23T08:45:41.928Z,90.29
2022-10-23T08:46:41.934Z,89.07
2022-10-23T08:47:41.908Z,89.07
2022-10-23T08:48:41.899Z,89.28
2022-10-23T08:49:41.890Z,88.76
2022-10-23T08:50:41.882Z,88.46
2022-10-23T08:51:41.885Z,88.16
2022-10-23T08:52:42.329Z,88.06
2022-10-23T08:53:41.848Z,87.71
2022-10-23T08:54:41.839Z,87.10
2022-10-23T08:55:41.830Z,87.65
2022-10-23T08:56:41.830Z,87.51
2022-10-23T08:57:43.513Z,87.30
2022-10-23T08:58:41.822Z,87.10
2022-10-23T08:59:41.787Z,87.10
2022-10-23T09:00:41.841Z,86.90
2022-10-23T09:01:41.908Z,86.55
2022-10-23T09:02:42.100Z,86.86
2022-10-23T09:03:41.771Z,86.86
2022-10-23T09:04:41.745Z,86.05
2022-10-23T09:05:41.741Z,86.15
2022-10-23T09:06:41.733Z,85.78
2022-10-23T09:07:41.953Z,85.53
2022-10-23T09:08:41.704Z,85.39
2022-10-23T09:09:41.694Z,84.89
2022-10-23T09:10:41.686Z,84.89
2022-10-23T09:11:41.700Z,84.58
2022-10-23T09:12:41.665Z,84.34
2022-10-23T09:13:41.653Z,84.14
2022-10-23T09:14:41.644Z,84.55
2022-10-23T09:15:41.638Z,84.34
2022-10-23T09:16:41.664Z,84.34
2022-10-23T09:17:41.939Z,84.70
2022-10-23T09:18:41.617Z,84.20
2022-10-23T09:19:41.597Z,84.50
2022-10-23T09:20:41.592Z,83.35
2022-10-23T09:21:41.608Z,82.95
2022-10-23T09:22:41.566Z,83.11
2022-10-23T09:23:41.559Z,82.70
2022-10-23T09:24:41.546Z,82.50
2022-10-23T09:25:41.551Z,82.16
2022-10-23T09:26:41.548Z,81.96
2022-10-23T09:27:41.915Z,81.35
2022-10-23T09:28:41.504Z,81.45
2022-10-23T09:29:41.495Z,81.71
2022-10-23T09:30:41.490Z,81.65
2022-10-23T09:31:41.498Z,80.71
2022-10-23T09:32:41.470Z,80.40
2022-10-23T09:33:41.480Z,80.50
2022-10-23T09:34:41.445Z,80.30
2022-10-23T09:35:41.448Z,79.59
2022-10-23T09:36:41.455Z,80.10
2022-10-23T09:37:41.654Z,79.49
2022-10-23T09:38:41.424Z,79.90
2022-10-23T09:39:41.406Z,78.88
2022-10-23T09:40:41.394Z,78.99
2022-10-23T09:41:41.408Z,79.46
2022-10-23T09:42:41.366Z,79.59
2022-10-23T09:43:41.358Z,79.49
2022-10-23T09:44:41.334Z,79.46
2022-10-23T09:45:42.343Z,79.96
2022-10-23T09:46:41.420Z,79.46
2022-10-23T09:47:41.735Z,79.62
2022-10-23T09:48:41.313Z,79.62
2022-10-23T09:49:41.309Z,78.91
2022-10-23T09:50:41.287Z,79.01
2022-10-23T09:51:41.304Z,78.77
2022-10-23T09:52:41.279Z,78.71
2022-10-23T09:53:41.259Z,78.27
2022-10-23T09:54:41.263Z,78.37
2022-10-23T09:55:41.243Z,78.27
2022-10-23T09:56:41.320Z,78.23
2022-10-23T09:57:41.553Z,78.17
2022-10-23T09:58:41.216Z,78.03
2022-10-23T09:59:41.203Z,77.62
2022-10-23T10:00:41.210Z,77.53
2022-10-23T10:01:41.330Z,77.99
2022-10-23T10:02:41.178Z,77.73
2022-10-23T10:03:41.162Z,77.32
2022-10-23T10:04:41.163Z,77.08
2022-10-23T10:05:41.145Z,77.32
2022-10-23T10:07:41.242Z,77.32
2022-10-23T10:08:41.111Z,77.42
2022-10-23T10:09:41.112Z,77.39
2022-10-23T10:10:41.101Z,77.53
2022-10-23T10:11:41.113Z,77.42
2022-10-23T10:12:41.085Z,77.28
2022-10-23T10:13:41.066Z,77.39
2022-10-23T10:14:41.056Z,76.98
2022-10-23T10:15:41.060Z,76.78
2022-10-23T10:16:41.057Z,76.64
2022-10-23T10:17:41.178Z,76.14
2022-10-23T10:18:41.018Z,76.24
2022-10-23T10:19:41.007Z,75.54
2022-10-23T10:20:41.001Z,75.84
2022-10-23T10:21:41.021Z,76.24
2022-10-23T10:22:40.977Z,75.63
2022-10-23T10:23:40.967Z,75.50
2022-10-23T10:24:40.967Z,75.50
2022-10-23T10:25:40.951Z,75.50
2022-10-23T10:26:40.999Z,75.26
2022-10-23T10:27:41.230Z,74.90
2022-10-23T10:28:40.914Z,75.30
2022-10-23T10:29:40.900Z,74.39
2022-10-23T10:30:40.893Z,74.49
2022-10-23T10:31:40.987Z,74.39
2022-10-23T10:32:40.882Z,74.08
2022-10-23T10:33:40.870Z,74.05
2022-10-23T10:34:40.847Z,73.58
2022-10-23T10:35:40.846Z,74.79
2022-10-23T10:36:40.866Z,74.08
2022-10-23T10:37:42.243Z,73.92
2022-10-23T10:38:40.808Z,73.92
2022-10-23T10:39:40.804Z,74.52
2022-10-23T10:40:40.805Z,74.73
2022-10-23T10:41:40.809Z,74.43
2022-10-23T10:42:40.795Z,74.59
2022-10-23T10:43:40.774Z,74.08
2022-10-23T10:44:40.761Z,73.88
2022-10-23T10:45:40.753Z,73.72
2022-10-23T10:46:40.761Z,74.39
2022-10-23T10:47:41.089Z,74.19
2022-10-23T10:48:40.726Z,73.68
2022-10-23T10:49:40.710Z,73.38
2022-10-23T10:50:40.693Z,74.39
2022-10-23T10:51:40.710Z,74.29
2022-10-23T10:52:43.180Z,73.88
2022-10-23T10:53:40.675Z,73.88
2022-10-23T10:54:40.654Z,73.88
2022-10-23T10:55:40.658Z,73.65
2022-10-23T10:56:40.668Z,73.58
2022-10-23T10:57:40.683Z,73.38
2022-10-23T11:00:26.929Z,73.28
2022-10-23T11:01:27.148Z,73.65
2022-10-23T11:02:26.988Z,72.67
2022-10-23T11:03:26.904Z,72.98
2022-10-23T11:04:26.905Z,73.99
2022-10-23T11:05:26.882Z,73.99
2022-10-23T11:06:26.879Z,74.08
2022-10-23T11:07:26.881Z,73.75
2022-10-23T11:08:26.865Z,74.39
2022-10-23T11:09:26.847Z,74.69
2022-10-23T11:10:26.834Z,74.08
2022-10-23T11:11:27.957Z,73.88
2022-10-23T11:12:27.970Z,74.46
2022-10-23T11:13:27.934Z,74.08
2022-10-23T11:14:27.918Z,73.85
2022-10-23T11:15:27.916Z,74.66
2022-10-23T11:16:27.908Z,73.88
2022-10-23T11:17:27.919Z,74.59
2022-10-23T11:18:27.884Z,74.29
2022-10-23T11:19:27.876Z,74.49
2022-10-23T11:20:27.870Z,74.49
2022-10-23T11:21:27.864Z,74.79
2022-10-23T11:22:27.894Z,74.49
2022-10-23T11:23:27.848Z,74.29
2022-10-23T11:24:27.835Z,74.63
2022-10-23T11:25:27.829Z,74.79
2022-10-23T11:26:27.813Z,74.43
2022-10-23T11:27:27.834Z,74.93
2022-10-23T11:28:27.794Z,75.03
2022-10-23T11:29:27.773Z,74.39
2022-10-23T11:30:27.779Z,74.08
2022-10-23T11:31:27.763Z,74.19
2022-10-23T11:32:27.812Z,73.79
2022-10-23T11:33:27.747Z,74.69
2022-10-23T11:34:27.737Z,74.05
2022-10-23T11:35:27.733Z,74.76
2022-10-23T11:36:27.721Z,73.85
2022-10-23T11:37:27.728Z,73.85
2022-10-23T11:38:27.694Z,73.61
2022-10-23T11:39:27.693Z,74.12
2022-10-23T11:40:27.689Z,73.32
2022-10-23T11:41:27.670Z,73.41
2022-10-23T11:42:27.676Z,73.41
2022-10-23T11:43:27.648Z,73.72
2022-10-23T11:44:27.653Z,74.22
2022-10-23T11:45:27.620Z,73.32
2022-10-23T11:46:27.647Z,73.32
2022-10-23T11:47:27.613Z,72.91
2022-10-23T11:48:27.609Z,72.71
2022-10-23T11:49:27.584Z,73.32
2022-10-23T11:50:27.596Z,72.64
2022-10-23T11:51:27.593Z,73.75
2022-10-23T11:52:27.558Z,73.45
2022-10-23T11:53:27.540Z,73.35
2022-10-23T11:54:27.545Z,73.35
2022-10-23T11:55:27.529Z,73.88
2022-10-23T11:56:27.539Z,74.15
2022-10-23T11:57:27.520Z,73.95
2022-10-23T11:58:27.503Z,74.35
2022-10-23T11:59:27.496Z,74.46
2022-10-23T12:00:27.490Z,74.22
2022-10-23T12:01:27.574Z,73.92
2022-10-23T12:02:27.498Z,73.82
2022-10-23T12:03:27.453Z,74.22
2022-10-23T12:04:27.443Z,74.22
2022-10-23T12:05:27.422Z,73.92
2022-10-23T12:06:27.448Z,74.05
2022-10-23T12:07:27.416Z,73.72
2022-10-23T12:08:27.396Z,73.41
2022-10-23T12:09:27.390Z,73.82
2022-10-23T12:10:27.387Z,74.22
2022-10-23T12:11:27.771Z,73.52
2022-10-23T12:12:27.386Z,73.45
2022-10-23T12:13:27.342Z,73.75
2022-10-23T12:14:27.358Z,73.82
2022-10-23T12:15:27.330Z,73.92
2022-10-23T12:16:27.320Z,73.85
2022-10-23T12:17:27.321Z,74.35
2022-10-23T12:18:27.301Z,73.85
2022-10-23T12:19:27.308Z,73.85
2022-10-23T12:20:27.284Z,73.95
2022-10-23T12:21:27.264Z,74.46
2022-10-23T12:22:27.307Z,74.55
2022-10-23T12:23:27.252Z,74.46
2022-10-23T12:24:27.240Z,74.86
2022-10-23T12:25:27.226Z,75.26
2022-10-23T12:26:27.222Z,74.62
2022-10-23T12:27:27.229Z,74.46
2022-10-23T12:28:27.201Z,73.85
2022-10-23T12:29:27.190Z,74.05
2022-10-23T12:30:27.183Z,73.95
2022-10-23T12:31:27.175Z,73.85
2022-10-23T12:32:27.169Z,74.66
2022-10-23T12:33:27.154Z,74.96
2022-10-23T12:34:27.150Z,75.20
2022-10-23T12:35:27.127Z,75.26
2022-10-23T12:36:27.123Z,74.99
2022-10-23T12:37:27.119Z,75.80
2022-10-23T12:38:28.023Z,75.60
2022-10-23T12:39:27.090Z,76.00
2022-10-23T12:40:27.082Z,76.61
2022-10-23T12:41:27.064Z,76.61
2022-10-23T12:42:27.085Z,76.51
2022-10-23T12:43:27.057Z,76.71
2022-10-23T12:44:27.037Z,76.81
2022-10-23T12:45:27.023Z,76.91
2022-10-23T12:46:27.026Z,76.91
2022-10-23T12:47:27.069Z,77.01
2022-10-23T12:48:27.010Z,77.01
2022-10-23T12:49:26.996Z,77.11
2022-10-23T12:50:27.012Z,77.31
2022-10-23T12:51:26.978Z,77.11
2022-10-23T12:52:26.990Z,76.71
2022-10-23T12:53:26.943Z,75.90
2022-10-23T12:54:26.950Z,76.40
2022-10-23T12:55:28.792Z,76.44
2022-10-23T12:56:28.617Z,76.14
2022-10-23T12:57:26.928Z,76.10